sensor_id;sensor_type;location;lat;lon;timestamp;P1;durP1;ratioP1;P2;durP2;ratioP2
19889;SDS011;10107;51.198;6.824;2022-08-14T00:01:36;4.40;;;3.53;;
19889;SDS011;10107;51.198;6.824;2022-08-14T00:05:39;3.83;;;3.50;;
19889;SDS011;10107;51.198;6.824;2022-08-14T00:09:43;3.83;;;3.53;;
19889;SDS011;10107;51.198;6.824;2022-08-14T00:13:45;4.20;;;3.73;;
19889;SDS011;10107;51.198;6.824;2022-08-14T00:17:48;4.35;;;3.75;;
19889;SDS011;10107;51.198;6.824;2022-08-14T00:21:55;4.18;;;3.78;;
19889;SDS011;10107;51.198;6.824;2022-08-14T00:25:57;4.50;;;4.10;;
19889;SDS011;10107;51.198;6.824;2022-08-14T00:29:59;4.30;;;3.90;;
19889;SDS011;10107;51.198;6.824;2022-08-14T00:34:01;4.45;;;4.05;;
19889;SDS011;10107;51.198;6.824;2022-08-14T00:38:05;4.40;;;4.00;;
19889;SDS011;10107;51.198;6.824;2022-08-14T00:42:07;4.20;;;3.80;;
19889;SDS011;10107;51.198;6.824;2022-08-14T00:46:09;4.38;;;3.92;;
19889;SDS011;10107;51.198;6.824;2022-08-14T00:50:12;5.05;;;4.43;;
19889;SDS011;10107;51.198;6.824;2022-08-14T00:54:19;4.68;;;4.15;;
19889;SDS011;10107;51.198;6.824;2022-08-14T00:58:21;4.47;;;3.85;;
19889;SDS011;10107;51.198;6.824;2022-08-14T01:02:33;4.40;;;4.00;;
19889;SDS011;10107;51.198;6.824;2022-08-14T01:06:37;5.25;;;3.92;;
19889;SDS011;10107;51.198;6.824;2022-08-14T01:10:40;6.20;;;4.53;;
19889;SDS011;10107;51.198;6.824;2022-08-14T01:14:53;5.28;;;4.55;;
19889;SDS011;10107;51.198;6.824;2022-08-14T01:18:55;4.65;;;4.25;;
19889;SDS011;10107;51.198;6.824;2022-08-14T01:23:17;4.32;;;3.92;;
19889;SDS011;10107;51.198;6.824;2022-08-14T01:27:20;5.32;;;4.38;;
19889;SDS011;10107;51.198;6.824;2022-08-14T01:31:24;4.90;;;4.25;;
19889;SDS011;10107;51.198;6.824;2022-08-14T01:35:27;5.68;;;4.95;;
19889;SDS011;10107;51.198;6.824;2022-08-14T01:39:30;4.93;;;4.45;;
19889;SDS011;10107;51.198;6.824;2022-08-14T01:43:32;5.10;;;4.60;;
19889;SDS011;10107;51.198;6.824;2022-08-14T01:47:44;5.93;;;5.00;;
19889;SDS011;10107;51.198;6.824;2022-08-14T01:51:46;5.22;;;4.72;;
19889;SDS011;10107;51.198;6.824;2022-08-14T01:55:54;5.20;;;4.70;;
19889;SDS011;10107;51.198;6.824;2022-08-14T01:59:59;5.47;;;4.55;;
19889;SDS011;10107;51.198;6.824;2022-08-14T02:04:01;5.55;;;4.95;;
19889;SDS011;10107;51.198;6.824;2022-08-14T02:08:03;5.85;;;5.30;;
19889;SDS011;10107;51.198;6.824;2022-08-14T02:12:07;6.05;;;5.45;;
19889;SDS011;10107;51.198;6.824;2022-08-14T02:16:09;6.30;;;5.70;;
19889;SDS011;10107;51.198;6.824;2022-08-14T02:20:11;5.82;;;5.25;;
19889;SDS011;10107;51.198;6.824;2022-08-14T02:24:13;6.00;;;5.20;;
19889;SDS011;10107;51.198;6.824;2022-08-14T02:28:18;5.73;;;5.13;;
19889;SDS011;10107;51.198;6.824;2022-08-14T02:32:20;6.00;;;5.38;;
19889;SDS011;10107;51.198;6.824;2022-08-14T02:36:22;6.57;;;5.88;;
19889;SDS011;10107;51.198;6.824;2022-08-14T02:40:24;5.63;;;5.13;;
19889;SDS011;10107;51.198;6.824;2022-08-14T02:44:28;5.87;;;5.37;;
19889;SDS011;10107;51.198;6.824;2022-08-14T02:48:30;6.22;;;5.63;;
19889;SDS011;10107;51.198;6.824;2022-08-14T02:52:35;6.20;;;5.60;;
19889;SDS011;10107;51.198;6.824;2022-08-14T02:56:37;6.22;;;5.63;;
19889;SDS011;10107;51.198;6.824;2022-08-14T03:00:40;6.85;;;6.05;;
19889;SDS011;10107;51.198;6.824;2022-08-14T03:04:42;6.50;;;5.90;;
19889;SDS011;10107;51.198;6.824;2022-08-14T03:08:44;6.70;;;6.10;;
19889;SDS011;10107;51.198;6.824;2022-08-14T03:12:47;6.78;;;6.10;;
19889;SDS011;10107;51.198;6.824;2022-08-14T03:16:50;6.68;;;6.03;;
19889;SDS011;10107;51.198;6.824;2022-08-14T03:20:52;7.15;;;6.40;;
19889;SDS011;10107;51.198;6.824;2022-08-14T03:24:54;6.57;;;5.90;;
19889;SDS011;10107;51.198;6.824;2022-08-14T03:28:56;6.88;;;6.18;;
19889;SDS011;10107;51.198;6.824;2022-08-14T03:33:00;6.80;;;6.20;;
19889;SDS011;10107;51.198;6.824;2022-08-14T03:37:02;6.50;;;5.90;;
19889;SDS011;10107;51.198;6.824;2022-08-14T03:41:04;7.80;;;6.38;;
19889;SDS011;10107;51.198;6.824;2022-08-14T03:45:13;7.22;;;6.53;;
19889;SDS011;10107;51.198;6.824;2022-08-14T03:49:17;7.10;;;6.40;;
19889;SDS011;10107;51.198;6.824;2022-08-14T03:53:21;7.22;;;6.53;;
19889;SDS011;10107;51.198;6.824;2022-08-14T03:57:23;6.47;;;5.85;;
19889;SDS011;10107;51.198;6.824;2022-08-14T04:01:26;7.75;;;6.97;;
19889;SDS011;10107;51.198;6.824;2022-08-14T04:05:29;7.68;;;6.88;;
19889;SDS011;10107;51.198;6.824;2022-08-14T04:09:32;7.00;;;6.30;;
19889;SDS011;10107;51.198;6.824;2022-08-14T04:13:35;7.00;;;6.30;;
19889;SDS011;10107;51.198;6.824;2022-08-14T04:21:44;7.32;;;6.63;;
19889;SDS011;10107;51.198;6.824;2022-08-14T04:25:47;7.15;;;6.45;;
19889;SDS011;10107;51.198;6.824;2022-08-14T04:29:52;7.10;;;6.40;;
19889;SDS011;10107;51.198;6.824;2022-08-14T04:33:56;8.00;;;7.00;;
19889;SDS011;10107;51.198;6.824;2022-08-14T04:38:06;8.73;;;6.93;;
19889;SDS011;10107;51.198;6.824;2022-08-14T04:46:45;9.20;;;7.60;;
19889;SDS011;10107;51.198;6.824;2022-08-14T04:51:01;9.82;;;7.20;;
19889;SDS011;10107;51.198;6.824;2022-08-14T04:55:07;6.93;;;6.25;;
19889;SDS011;10107;51.198;6.824;2022-08-14T04:59:10;8.23;;;6.90;;
19889;SDS011;10107;51.198;6.824;2022-08-14T05:03:12;7.63;;;6.93;;
19889;SDS011;10107;51.198;6.824;2022-08-14T05:07:14;7.18;;;6.47;;
19889;SDS011;10107;51.198;6.824;2022-08-14T05:11:17;6.65;;;6.00;;
19889;SDS011;10107;51.198;6.824;2022-08-14T05:15:19;6.97;;;5.88;;
19889;SDS011;10107;51.198;6.824;2022-08-14T05:19:22;7.82;;;6.38;;
19889;SDS011;10107;51.198;6.824;2022-08-14T05:23:27;7.70;;;7.00;;
19889;SDS011;10107;51.198;6.824;2022-08-14T05:27:32;7.50;;;6.80;;
19889;SDS011;10107;51.198;6.824;2022-08-14T05:31:34;7.00;;;6.15;;
19889;SDS011;10107;51.198;6.824;2022-08-14T05:35:39;8.10;;;6.03;;
19889;SDS011;10107;51.198;6.824;2022-08-14T05:39:41;7.47;;;6.75;;
19889;SDS011;10107;51.198;6.824;2022-08-14T05:43:45;8.68;;;7.88;;
19889;SDS011;10107;51.198;6.824;2022-08-14T05:47:48;8.73;;;7.82;;
19889;SDS011;10107;51.198;6.824;2022-08-14T05:51:50;8.13;;;7.32;;
19889;SDS011;10107;51.198;6.824;2022-08-14T05:55:52;7.70;;;6.60;;
19889;SDS011;10107;51.198;6.824;2022-08-14T05:59:55;8.38;;;7.45;;
19889;SDS011;10107;51.198;6.824;2022-08-14T06:03:57;7.65;;;6.93;;
19889;SDS011;10107;51.198;6.824;2022-08-14T06:07:59;8.30;;;7.13;;
19889;SDS011;10107;51.198;6.824;2022-08-14T06:12:02;8.20;;;6.43;;
19889;SDS011;10107;51.198;6.824;2022-08-14T06:16:05;7.87;;;6.90;;
19889;SDS011;10107;51.198;6.824;2022-08-14T06:20:08;7.13;;;6.50;;
19889;SDS011;10107;51.198;6.824;2022-08-14T06:24:10;7.25;;;6.53;;
19889;SDS011;10107;51.198;6.824;2022-08-14T06:28:15;6.78;;;5.95;;
19889;SDS011;10107;51.198;6.824;2022-08-14T06:32:19;6.68;;;6.07;;
19889;SDS011;10107;51.198;6.824;2022-08-14T06:36:21;7.45;;;5.95;;
19889;SDS011;10107;51.198;6.824;2022-08-14T06:40:23;8.13;;;6.57;;
19889;SDS011;10107;51.198;6.824;2022-08-14T06:44:26;6.28;;;5.38;;
19889;SDS011;10107;51.198;6.824;2022-08-14T06:48:29;5.85;;;5.35;;
19889;SDS011;10107;51.198;6.824;2022-08-14T06:52:31;6.70;;;6.20;;
19889;SDS011;10107;51.198;6.824;2022-08-14T06:56:33;5.68;;;5.18;;
19889;SDS011;10107;51.198;6.824;2022-08-14T07:00:35;6.25;;;5.75;;
19889;SDS011;10107;51.198;6.824;2022-08-14T07:04:38;6.25;;;5.65;;
19889;SDS011;10107;51.198;6.824;2022-08-14T07:08:57;6.20;;;5.60;;
19889;SDS011;10107;51.198;6.824;2022-08-14T07:12:59;5.30;;;4.85;;
19889;SDS011;10107;51.198;6.824;2022-08-14T07:17:01;6.30;;;5.80;;
19889;SDS011;10107;51.198;6.824;2022-08-14T07:21:04;5.72;;;5.25;;
19889;SDS011;10107;51.198;6.824;2022-08-14T07:25:07;6.32;;;5.82;;
19889;SDS011;10107;51.198;6.824;2022-08-14T07:29:09;6.25;;;5.65;;
19889;SDS011;10107;51.198;6.824;2022-08-14T07:33:11;5.93;;;5.43;;
19889;SDS011;10107;51.198;6.824;2022-08-14T07:37:15;6.10;;;5.50;;
19889;SDS011;10107;51.198;6.824;2022-08-14T07:41:16;6.05;;;5.43;;
19889;SDS011;10107;51.198;6.824;2022-08-14T07:45:18;6.78;;;5.57;;
19889;SDS011;10107;51.198;6.824;2022-08-14T07:49:20;6.40;;;5.82;;
19889;SDS011;10107;51.198;6.824;2022-08-14T07:53:23;6.35;;;5.75;;
19889;SDS011;10107;51.198;6.824;2022-08-14T07:57:25;6.63;;;6.03;;
19889;SDS011;10107;51.198;6.824;2022-08-14T08:01:27;6.47;;;5.78;;
19889;SDS011;10107;51.198;6.824;2022-08-14T08:05:30;7.13;;;6.05;;
19889;SDS011;10107;51.198;6.824;2022-08-14T08:13:36;6.68;;;6.03;;
19889;SDS011;10107;51.198;6.824;2022-08-14T08:17:41;6.60;;;6.10;;
19889;SDS011;10107;51.198;6.824;2022-08-14T08:21:43;5.90;;;5.40;;
19889;SDS011;10107;51.198;6.824;2022-08-14T08:25:48;6.03;;;5.53;;
19889;SDS011;10107;51.198;6.824;2022-08-14T08:29:50;6.82;;;5.82;;
19889;SDS011;10107;51.198;6.824;2022-08-14T08:33:52;5.63;;;5.22;;
19889;SDS011;10107;51.198;6.824;2022-08-14T08:37:59;5.90;;;5.40;;
19889;SDS011;10107;51.198;6.824;2022-08-14T08:42:04;6.80;;;4.97;;
19889;SDS011;10107;51.198;6.824;2022-08-14T08:46:07;6.65;;;5.15;;
19889;SDS011;10107;51.198;6.824;2022-08-14T08:50:17;6.00;;;5.40;;
19889;SDS011;10107;51.198;6.824;2022-08-14T08:54:20;5.97;;;5.47;;
19889;SDS011;10107;51.198;6.824;2022-08-14T08:58:23;5.90;;;5.25;;
19889;SDS011;10107;51.198;6.824;2022-08-14T09:02:25;5.45;;;4.95;;
19889;SDS011;10107;51.198;6.824;2022-08-14T09:06:28;6.43;;;5.20;;
19889;SDS011;10107;51.198;6.824;2022-08-14T09:10:30;5.80;;;5.30;;
19889;SDS011;10107;51.198;6.824;2022-08-14T09:14:33;5.45;;;4.95;;
19889;SDS011;10107;51.198;6.824;2022-08-14T09:18:35;5.40;;;4.90;;
19889;SDS011;10107;51.198;6.824;2022-08-14T09:22:41;5.00;;;4.60;;
19889;SDS011;10107;51.198;6.824;2022-08-14T09:26:43;5.47;;;4.65;;
19889;SDS011;10107;51.198;6.824;2022-08-14T09:30:48;5.10;;;4.70;;
19889;SDS011;10107;51.198;6.824;2022-08-14T09:34:54;4.82;;;4.43;;
19889;SDS011;10107;51.198;6.824;2022-08-14T09:39:04;5.70;;;5.00;;
19889;SDS011;10107;51.198;6.824;2022-08-14T09:43:15;5.25;;;4.80;;
19889;SDS011;10107;51.198;6.824;2022-08-14T09:47:44;4.25;;;3.85;;
19889;SDS011;10107;51.198;6.824;2022-08-14T09:51:48;4.97;;;4.55;;
19889;SDS011;10107;51.198;6.824;2022-08-14T09:55:56;4.82;;;4.43;;
19889;SDS011;10107;51.198;6.824;2022-08-14T10:00:08;4.30;;;3.90;;
19889;SDS011;10107;51.198;6.824;2022-08-14T10:04:17;5.00;;;4.60;;
19889;SDS011;10107;51.198;6.824;2022-08-14T10:08:22;4.53;;;4.13;;
19889;SDS011;10107;51.198;6.824;2022-08-14T10:16:27;4.72;;;4.32;;
19889;SDS011;10107;51.198;6.824;2022-08-14T10:20:32;4.72;;;4.10;;
19889;SDS011;10107;51.198;6.824;2022-08-14T10:24:38;3.97;;;3.67;;
19889;SDS011;10107;51.198;6.824;2022-08-14T10:28:42;4.38;;;3.97;;
19889;SDS011;10107;51.198;6.824;2022-08-14T10:32:48;3.92;;;3.63;;
19889;SDS011;10107;51.198;6.824;2022-08-14T10:37:00;5.32;;;3.90;;
19889;SDS011;10107;51.198;6.824;2022-08-14T10:41:10;4.40;;;4.00;;
19889;SDS011;10107;51.198;6.824;2022-08-14T10:45:17;4.10;;;3.70;;
19889;SDS011;10107;51.198;6.824;2022-08-14T10:49:21;3.88;;;3.53;;
19889;SDS011;10107;51.198;6.824;2022-08-14T10:53:29;4.00;;;3.60;;
19889;SDS011;10107;51.198;6.824;2022-08-14T10:57:45;4.05;;;3.75;;
19889;SDS011;10107;51.198;6.824;2022-08-14T11:01:48;4.00;;;3.70;;
19889;SDS011;10107;51.198;6.824;2022-08-14T11:05:50;4.60;;;3.95;;
19889;SDS011;10107;51.198;6.824;2022-08-14T11:09:55;4.10;;;3.70;;
19889;SDS011;10107;51.198;6.824;2022-08-14T11:14:00;3.80;;;3.38;;
19889;SDS011;10107;51.198;6.824;2022-08-14T11:18:06;4.03;;;3.50;;
19889;SDS011;10107;51.198;6.824;2022-08-14T11:22:11;3.47;;;3.28;;
19889;SDS011;10107;51.198;6.824;2022-08-14T11:26:18;3.50;;;3.20;;
19889;SDS011;10107;51.198;6.824;2022-08-14T11:30:20;3.80;;;3.50;;
19889;SDS011;10107;51.198;6.824;2022-08-14T11:34:24;3.25;;;3.05;;
19889;SDS011;10107;51.198;6.824;2022-08-14T11:38:26;4.03;;;3.72;;
19889;SDS011;10107;51.198;6.824;2022-08-14T11:42:30;3.38;;;2.80;;
19889;SDS011;10107;51.198;6.824;2022-08-14T11:46:32;3.80;;;3.50;;
19889;SDS011;10107;51.198;6.824;2022-08-14T11:50:34;3.40;;;3.15;;
19889;SDS011;10107;51.198;6.824;2022-08-14T11:54:36;3.90;;;3.60;;
19889;SDS011;10107;51.198;6.824;2022-08-14T11:58:39;3.65;;;3.35;;
19889;SDS011;10107;51.198;6.824;2022-08-14T12:02:51;3.83;;;3.53;;
19889;SDS011;10107;51.198;6.824;2022-08-14T12:06:54;3.42;;;3.22;;
19889;SDS011;10107;51.198;6.824;2022-08-14T12:10:56;3.97;;;3.45;;
19889;SDS011;10107;51.198;6.824;2022-08-14T12:15:00;3.97;;;3.67;;
19889;SDS011;10107;51.198;6.824;2022-08-14T12:19:02;3.53;;;3.22;;
19889;SDS011;10107;51.198;6.824;2022-08-14T12:23:05;3.85;;;3.55;;
19889;SDS011;10107;51.198;6.824;2022-08-14T12:27:19;5.10;;;4.60;;
19889;SDS011;10107;51.198;6.824;2022-08-14T12:31:22;4.03;;;3.67;;
19889;SDS011;10107;51.198;6.824;2022-08-14T12:35:34;3.60;;;3.30;;
19889;SDS011;10107;51.198;6.824;2022-08-14T12:39:37;3.90;;;3.60;;
19889;SDS011;10107;51.198;6.824;2022-08-14T12:47:48;4.00;;;3.50;;
19889;SDS011;10107;51.198;6.824;2022-08-14T12:52:01;4.20;;;3.83;;
19889;SDS011;10107;51.198;6.824;2022-08-14T12:56:03;4.35;;;4.00;;
19889;SDS011;10107;51.198;6.824;2022-08-14T13:00:08;4.05;;;3.75;;
19889;SDS011;10107;51.198;6.824;2022-08-14T13:04:15;4.35;;;3.63;;
19889;SDS011;10107;51.198;6.824;2022-08-14T13:08:17;4.60;;;4.20;;
19889;SDS011;10107;51.198;6.824;2022-08-14T13:12:22;4.43;;;3.90;;
19889;SDS011;10107;51.198;6.824;2022-08-14T13:16:29;3.95;;;3.65;;
19889;SDS011;10107;51.198;6.824;2022-08-14T13:20:33;3.83;;;3.53;;
19889;SDS011;10107;51.198;6.824;2022-08-14T13:24:36;4.03;;;3.72;;
19889;SDS011;10107;51.198;6.824;2022-08-14T13:28:39;4.68;;;4.18;;
19889;SDS011;10107;51.198;6.824;2022-08-14T13:32:43;5.05;;;3.97;;
19889;SDS011;10107;51.198;6.824;2022-08-14T13:36:46;4.80;;;3.95;;
19889;SDS011;10107;51.198;6.824;2022-08-14T13:40:48;4.18;;;3.60;;
19889;SDS011;10107;51.198;6.824;2022-08-14T13:44:55;4.00;;;3.70;;
19889;SDS011;10107;51.198;6.824;2022-08-14T13:48:58;4.00;;;3.70;;
19889;SDS011;10107;51.198;6.824;2022-08-14T13:53:02;4.20;;;3.80;;
19889;SDS011;10107;51.198;6.824;2022-08-14T13:57:03;4.05;;;3.58;;
19889;SDS011;10107;51.198;6.824;2022-08-14T14:01:06;4.45;;;4.05;;
19889;SDS011;10107;51.198;6.824;2022-08-14T14:05:08;3.90;;;3.50;;
19889;SDS011;10107;51.198;6.824;2022-08-14T14:09:14;4.20;;;3.80;;
19889;SDS011;10107;51.198;6.824;2022-08-14T14:13:21;4.30;;;3.90;;
19889;SDS011;10107;51.198;6.824;2022-08-14T14:17:25;4.13;;;3.83;;
19889;SDS011;10107;51.198;6.824;2022-08-14T14:21:28;4.20;;;3.90;;
19889;SDS011;10107;51.198;6.824;2022-08-14T14:29:34;3.60;;;3.30;;
19889;SDS011;10107;51.198;6.824;2022-08-14T14:37:44;4.43;;;3.30;;
19889;SDS011;10107;51.198;6.824;2022-08-14T14:41:50;4.47;;;3.85;;
19889;SDS011;10107;51.198;6.824;2022-08-14T14:45:53;3.72;;;3.42;;
19889;SDS011;10107;51.198;6.824;2022-08-14T14:49:55;4.05;;;3.70;;
19889;SDS011;10107;51.198;6.824;2022-08-14T14:53:57;4.00;;;3.60;;
19889;SDS011;10107;51.198;6.824;2022-08-14T14:58:02;3.67;;;3.38;;
19889;SDS011;10107;51.198;6.824;2022-08-14T15:02:06;4.10;;;3.70;;
19889;SDS011;10107;51.198;6.824;2022-08-14T15:06:08;3.58;;;3.28;;
19889;SDS011;10107;51.198;6.824;2022-08-14T15:10:12;3.95;;;3.40;;
19889;SDS011;10107;51.198;6.824;2022-08-14T15:14:17;4.30;;;3.95;;
19889;SDS011;10107;51.198;6.824;2022-08-14T15:18:19;4.05;;;3.75;;
19889;SDS011;10107;51.198;6.824;2022-08-14T15:22:22;4.03;;;3.67;;
19889;SDS011;10107;51.198;6.824;2022-08-14T15:26:23;3.90;;;3.60;;
19889;SDS011;10107;51.198;6.824;2022-08-14T15:30:27;3.57;;;3.33;;
19889;SDS011;10107;51.198;6.824;2022-08-14T15:34:29;3.35;;;3.05;;
19889;SDS011;10107;51.198;6.824;2022-08-14T15:38:31;4.47;;;4.00;;
19889;SDS011;10107;51.198;6.824;2022-08-14T15:42:33;4.32;;;3.85;;
19889;SDS011;10107;51.198;6.824;2022-08-14T15:46:38;4.05;;;3.65;;
19889;SDS011;10107;51.198;6.824;2022-08-14T15:50:41;3.78;;;3.40;;
19889;SDS011;10107;51.198;6.824;2022-08-14T15:54:43;4.47;;;3.42;;
19889;SDS011;10107;51.198;6.824;2022-08-14T15:58:45;4.18;;;3.80;;
19889;SDS011;10107;51.198;6.824;2022-08-14T16:02:48;4.30;;;3.90;;
19889;SDS011;10107;51.198;6.824;2022-08-14T16:06:50;4.13;;;3.70;;
19889;SDS011;10107;51.198;6.824;2022-08-14T16:10:52;4.72;;;4.32;;
19889;SDS011;10107;51.198;6.824;2022-08-14T16:14:54;4.10;;;3.42;;
19889;SDS011;10107;51.198;6.824;2022-08-14T16:18:58;5.20;;;4.70;;
19889;SDS011;10107;51.198;6.824;2022-08-14T16:23:00;4.18;;;3.88;;
19889;SDS011;10107;51.198;6.824;2022-08-14T16:27:04;4.40;;;4.00;;
19889;SDS011;10107;51.198;6.824;2022-08-14T16:35:09;3.70;;;3.40;;
19889;SDS011;10107;51.198;6.824;2022-08-14T16:39:12;3.63;;;3.30;;
19889;SDS011;10107;51.198;6.824;2022-08-14T16:43:15;4.03;;;3.63;;
19889;SDS011;10107;51.198;6.824;2022-08-14T16:47:25;3.25;;;3.03;;
19889;SDS011;10107;51.198;6.824;2022-08-14T16:51:28;2.97;;;2.75;;
19889;SDS011;10107;51.198;6.824;2022-08-14T16:55:31;3.20;;;2.90;;
19889;SDS011;10107;51.198;6.824;2022-08-14T16:59:33;2.72;;;2.53;;
19889;SDS011;10107;51.198;6.824;2022-08-14T17:03:37;3.78;;;3.03;;
19889;SDS011;10107;51.198;6.824;2022-08-14T17:08:10;2.85;;;2.60;;
19889;SDS011;10107;51.198;6.824;2022-08-14T17:12:15;2.60;;;2.40;;
19889;SDS011;10107;51.198;6.824;2022-08-14T17:16:20;3.33;;;3.03;;
19889;SDS011;10107;51.198;6.824;2022-08-14T17:20:22;3.95;;;3.17;;
19889;SDS011;10107;51.198;6.824;2022-08-14T17:24:26;3.65;;;3.22;;
19889;SDS011;10107;51.198;6.824;2022-08-14T17:28:28;3.60;;;3.30;;
19889;SDS011;10107;51.198;6.824;2022-08-14T17:32:30;3.13;;;2.83;;
19889;SDS011;10107;51.198;6.824;2022-08-14T17:36:33;3.20;;;3.00;;
19889;SDS011;10107;51.198;6.824;2022-08-14T17:40:37;3.88;;;3.50;;
19889;SDS011;10107;51.198;6.824;2022-08-14T17:44:42;3.75;;;3.38;;
19889;SDS011;10107;51.198;6.824;2022-08-14T17:48:47;3.53;;;3.22;;
19889;SDS011;10107;51.198;6.824;2022-08-14T17:52:50;4.68;;;3.85;;
19889;SDS011;10107;51.198;6.824;2022-08-14T17:56:54;4.30;;;3.57;;
19889;SDS011;10107;51.198;6.824;2022-08-14T18:00:58;4.07;;;3.67;;
19889;SDS011;10107;51.198;6.824;2022-08-14T18:05:00;4.82;;;3.97;;
19889;SDS011;10107;51.198;6.824;2022-08-14T18:09:02;5.43;;;4.28;;
19889;SDS011;10107;51.198;6.824;2022-08-14T18:13:06;4.67;;;3.97;;
19889;SDS011;10107;51.198;6.824;2022-08-14T18:17:09;4.68;;;3.90;;
19889;SDS011;10107;51.198;6.824;2022-08-14T18:21:11;5.47;;;4.32;;
19889;SDS011;10107;51.198;6.824;2022-08-14T18:25:13;4.75;;;4.25;;
19889;SDS011;10107;51.198;6.824;2022-08-14T18:29:16;4.90;;;4.40;;
19889;SDS011;10107;51.198;6.824;2022-08-14T18:33:20;5.18;;;3.88;;
19889;SDS011;10107;51.198;6.824;2022-08-14T18:41:25;4.43;;;3.95;;
19889;SDS011;10107;51.198;6.824;2022-08-14T18:45:30;4.15;;;3.75;;
19889;SDS011;10107;51.198;6.824;2022-08-14T18:49:42;4.32;;;3.92;;
19889;SDS011;10107;51.198;6.824;2022-08-14T18:54:00;4.90;;;4.30;;
19889;SDS011;10107;51.198;6.824;2022-08-14T18:58:17;5.10;;;4.60;;
19889;SDS011;10107;51.198;6.824;2022-08-14T19:02:41;4.78;;;4.28;;
19889;SDS011;10107;51.198;6.824;2022-08-14T19:06:44;5.18;;;3.80;;
19889;SDS011;10107;51.198;6.824;2022-08-14T19:10:48;4.40;;;4.00;;
19889;SDS011;10107;51.198;6.824;2022-08-14T19:19:09;4.78;;;4.20;;
19889;SDS011;10107;51.198;6.824;2022-08-14T19:23:14;4.07;;;3.67;;
19889;SDS011;10107;51.198;6.824;2022-08-14T19:27:18;4.03;;;3.63;;
19889;SDS011;10107;51.198;6.824;2022-08-14T19:31:34;5.85;;;3.60;;
19889;SDS011;10107;51.198;6.824;2022-08-14T19:35:45;4.95;;;3.97;;
19889;SDS011;10107;51.198;6.824;2022-08-14T19:39:47;4.70;;;3.83;;
19889;SDS011;10107;51.198;6.824;2022-08-14T19:43:51;3.88;;;3.55;;
19889;SDS011;10107;51.198;6.824;2022-08-14T19:47:53;4.03;;;3.63;;
19889;SDS011;10107;51.198;6.824;2022-08-14T19:51:57;4.68;;;3.90;;
19889;SDS011;10107;51.198;6.824;2022-08-14T19:56:00;4.07;;;3.45;;
19889;SDS011;10107;51.198;6.824;2022-08-14T20:00:04;4.32;;;3.92;;
19889;SDS011;10107;51.198;6.824;2022-08-14T20:04:21;4.20;;;3.80;;
19889;SDS011;10107;51.198;6.824;2022-08-14T20:08:25;3.70;;;3.40;;
19889;SDS011;10107;51.198;6.824;2022-08-14T20:12:27;3.83;;;3.42;;
19889;SDS011;10107;51.198;6.824;2022-08-14T20:16:30;3.88;;;3.50;;
19889;SDS011;10107;51.198;6.824;2022-08-14T20:20:37;3.92;;;3.53;;
19889;SDS011;10107;51.198;6.824;2022-08-14T20:24:42;4.53;;;3.78;;
19889;SDS011;10107;51.198;6.824;2022-08-14T20:28:45;3.88;;;3.55;;
19889;SDS011;10107;51.198;6.824;2022-08-14T20:32:48;4.10;;;3.70;;
19889;SDS011;10107;51.198;6.824;2022-08-14T20:36:59;4.05;;;3.67;;
19889;SDS011;10107;51.198;6.824;2022-08-14T20:41:06;4.40;;;3.80;;
19889;SDS011;10107;51.198;6.824;2022-08-14T20:45:09;4.20;;;3.80;;
19889;SDS011;10107;51.198;6.824;2022-08-14T20:49:26;4.90;;;4.10;;
19889;SDS011;10107;51.198;6.824;2022-08-14T20:53:30;5.32;;;4.47;;
19889;SDS011;10107;51.198;6.824;2022-08-14T20:57:37;4.40;;;4.00;;
19889;SDS011;10107;51.198;6.824;2022-08-14T21:01:40;5.50;;;4.63;;
19889;SDS011;10107;51.198;6.824;2022-08-14T21:05:43;5.60;;;4.70;;
19889;SDS011;10107;51.198;6.824;2022-08-14T21:09:46;7.70;;;4.68;;
19889;SDS011;10107;51.198;6.824;2022-08-14T21:13:50;5.40;;;4.90;;
19889;SDS011;10107;51.198;6.824;2022-08-14T21:17:53;4.75;;;4.35;;
19889;SDS011;10107;51.198;6.824;2022-08-14T21:21:55;5.53;;;5.00;;
19889;SDS011;10107;51.198;6.824;2022-08-14T21:26:00;6.05;;;4.80;;
19889;SDS011;10107;51.198;6.824;2022-08-14T21:30:03;5.97;;;5.13;;
19889;SDS011;10107;51.198;6.824;2022-08-14T21:34:07;5.00;;;4.45;;
19889;SDS011;10107;51.198;6.824;2022-08-14T21:38:12;4.75;;;4.25;;
19889;SDS011;10107;51.198;6.824;2022-08-14T21:42:15;5.03;;;4.60;;
19889;SDS011;10107;51.198;6.824;2022-08-14T21:46:17;5.35;;;4.40;;
19889;SDS011;10107;51.198;6.824;2022-08-14T21:50:21;5.15;;;4.60;;
19889;SDS011;10107;51.198;6.824;2022-08-14T21:54:23;5.60;;;4.82;;
19889;SDS011;10107;51.198;6.824;2022-08-14T21:58:26;5.78;;;5.05;;
19889;SDS011;10107;51.198;6.824;2022-08-14T22:02:29;6.32;;;5.07;;
19889;SDS011;10107;51.198;6.824;2022-08-14T22:06:32;6.25;;;4.75;;
19889;SDS011;10107;51.198;6.824;2022-08-14T22:10:35;5.32;;;4.82;;
19889;SDS011;10107;51.198;6.824;2022-08-14T22:14:37;4.80;;;4.30;;
19889;SDS011;10107;51.198;6.824;2022-08-14T22:18:39;5.38;;;4.25;;
19889;SDS011;10107;51.198;6.824;2022-08-14T22:22:43;6.15;;;4.65;;
19889;SDS011;10107;51.198;6.824;2022-08-14T22:26:45;4.72;;;4.30;;
19889;SDS011;10107;51.198;6.824;2022-08-14T22:30:48;4.77;;;4.23;;
19889;SDS011;10107;51.198;6.824;2022-08-14T22:34:51;4.28;;;3.88;;
19889;SDS011;10107;51.198;6.824;2022-08-14T22:38:54;4.78;;;4.38;;
19889;SDS011;10107;51.198;6.824;2022-08-14T22:46:58;4.95;;;4.45;;
19889;SDS011;10107;51.198;6.824;2022-08-14T22:51:00;5.35;;;4.50;;
19889;SDS011;10107;51.198;6.824;2022-08-14T22:55:04;4.82;;;4.40;;
19889;SDS011;10107;51.198;6.824;2022-08-14T22:59:08;4.60;;;4.15;;
19889;SDS011;10107;51.198;6.824;2022-08-14T23:03:11;5.33;;;4.83;;
19889;SDS011;10107;51.198;6.824;2022-08-14T23:07:15;5.38;;;4.80;;
19889;SDS011;10107;51.198;6.824;2022-08-14T23:11:19;5.43;;;4.90;;
19889;SDS011;10107;51.198;6.824;2022-08-14T23:15:23;6.45;;;4.95;;
19889;SDS011;10107;51.198;6.824;2022-08-14T23:19:26;5.40;;;4.90;;
19889;SDS011;10107;51.198;6.824;2022-08-14T23:23:28;4.50;;;4.10;;
19889;SDS011;10107;51.198;6.824;2022-08-14T23:27:32;5.13;;;4.63;;
19889;SDS011;10107;51.198;6.824;2022-08-14T23:31:34;4.70;;;4.30;;
19889;SDS011;10107;51.198;6.824;2022-08-14T23:35:37;4.85;;;4.45;;
19889;SDS011;10107;51.198;6.824;2022-08-14T23:39:41;4.65;;;4.00;;
19889;SDS011;10107;51.198;6.824;2022-08-14T23:43:44;4.65;;;4.25;;
19889;SDS011;10107;51.198;6.824;2022-08-14T23:47:49;5.13;;;4.63;;
19889;SDS011;10107;51.198;6.824;2022-08-14T23:51:52;4.95;;;4.47;;
19889;SDS011;10107;51.198;6.824;2022-08-14T23:55:55;5.20;;;4.65;;
